sensor_id;sensor_type;location;lat;lon;timestamp;temperature;humidity
11704;DHT22;5908;51.354;7.458;2023-10-19T00:01:25;13.50;99.90
11704;DHT22;5908;51.354;7.458;2023-10-19T00:03:53;13.50;99.90
11704;DHT22;5908;51.354;7.458;2023-10-19T00:06:21;13.50;99.90
11704;DHT22;5908;51.354;7.458;2023-10-19T00:08:48;13.50;99.90
11704;DHT22;5908;51.354;7.458;2023-10-19T00:11:16;13.50;99.90
11704;DHT22;5908;51.354;7.458;2023-10-19T00:13:50;13.50;99.90
11704;DHT22;5908;51.354;7.458;2023-10-19T00:16:16;13.50;99.90
11704;DHT22;5908;51.354;7.458;2023-10-19T00:18:43;13.50;99.90
11704;DHT22;5908;51.354;7.458;2023-10-19T00:21:09;13.60;99.90
11704;DHT22;5908;51.354;7.458;2023-10-19T00:23:45;13.60;99.90
11704;DHT22;5908;51.354;7.458;2023-10-19T00:26:13;13.70;99.90
11704;DHT22;5908;51.354;7.458;2023-10-19T00:28:44;13.70;99.90
11704;DHT22;5908;51.354;7.458;2023-10-19T00:31:13;13.70;99.90
11704;DHT22;5908;51.354;7.458;2023-10-19T00:33:40;13.80;99.90
11704;DHT22;5908;51.354;7.458;2023-10-19T00:36:07;13.90;99.90
11704;DHT22;5908;51.354;7.458;2023-10-19T00:38:34;13.90;99.90
11704;DHT22;5908;51.354;7.458;2023-10-19T00:41:13;13.90;99.90
11704;DHT22;5908;51.354;7.458;2023-10-19T00:43:46;13.90;99.90
11704;DHT22;5908;51.354;7.458;2023-10-19T00:46:16;13.90;99.90
11704;DHT22;5908;51.354;7.458;2023-10-19T00:48:49;14.00;99.90
11704;DHT22;5908;51.354;7.458;2023-10-19T00:51:20;14.00;99.90
11704;DHT22;5908;51.354;7.458;2023-10-19T00:53:54;14.00;99.90
11704;DHT22;5908;51.354;7.458;2023-10-19T00:56:23;14.00;99.90
11704;DHT22;5908;51.354;7.458;2023-10-19T00:58:52;14.10;99.90
11704;DHT22;5908;51.354;7.458;2023-10-19T01:01:26;14.20;99.90
11704;DHT22;5908;51.354;7.458;2023-10-19T01:03:54;14.30;99.90
11704;DHT22;5908;51.354;7.458;2023-10-19T01:06:24;14.20;99.90
11704;DHT22;5908;51.354;7.458;2023-10-19T01:08:51;14.30;99.90
11704;DHT22;5908;51.354;7.458;2023-10-19T01:11:19;14.30;99.90
11704;DHT22;5908;51.354;7.458;2023-10-19T01:13:47;14.40;99.90
11704;DHT22;5908;51.354;7.458;2023-10-19T01:16:16;14.40;99.90
11704;DHT22;5908;51.354;7.458;2023-10-19T01:18:49;14.30;99.90
11704;DHT22;5908;51.354;7.458;2023-10-19T01:21:21;14.40;99.90
11704;DHT22;5908;51.354;7.458;2023-10-19T01:23:52;14.40;99.90
11704;DHT22;5908;51.354;7.458;2023-10-19T01:26:19;14.50;99.90
11704;DHT22;5908;51.354;7.458;2023-10-19T01:28:51;14.50;99.90
11704;DHT22;5908;51.354;7.458;2023-10-19T01:31:26;14.60;99.90
11704;DHT22;5908;51.354;7.458;2023-10-19T01:34:05;14.50;99.90
11704;DHT22;5908;51.354;7.458;2023-10-19T01:36:34;14.60;99.90
11704;DHT22;5908;51.354;7.458;2023-10-19T01:39:08;14.60;99.90
11704;DHT22;5908;51.354;7.458;2023-10-19T01:41:35;14.60;99.90
11704;DHT22;5908;51.354;7.458;2023-10-19T01:44:02;14.60;99.90
11704;DHT22;5908;51.354;7.458;2023-10-19T01:46:30;14.60;99.90
11704;DHT22;5908;51.354;7.458;2023-10-19T01:48:59;14.60;99.90
11704;DHT22;5908;51.354;7.458;2023-10-19T01:51:28;14.60;99.90
11704;DHT22;5908;51.354;7.458;2023-10-19T01:53:56;14.70;99.90
11704;DHT22;5908;51.354;7.458;2023-10-19T01:56:24;14.80;99.90
11704;DHT22;5908;51.354;7.458;2023-10-19T01:58:51;14.90;99.90
11704;DHT22;5908;51.354;7.458;2023-10-19T02:01:18;14.90;99.90
11704;DHT22;5908;51.354;7.458;2023-10-19T02:03:54;14.90;99.90
11704;DHT22;5908;51.354;7.458;2023-10-19T02:06:23;14.80;99.90
11704;DHT22;5908;51.354;7.458;2023-10-19T02:08:55;14.80;99.90
11704;DHT22;5908;51.354;7.458;2023-10-19T02:11:24;14.80;99.90
11704;DHT22;5908;51.354;7.458;2023-10-19T02:13:53;14.70;99.90
11704;DHT22;5908;51.354;7.458;2023-10-19T02:16:20;14.80;99.90
11704;DHT22;5908;51.354;7.458;2023-10-19T02:18:49;14.80;99.90
11704;DHT22;5908;51.354;7.458;2023-10-19T02:21:16;14.80;99.90
11704;DHT22;5908;51.354;7.458;2023-10-19T02:23:47;14.80;99.90
11704;DHT22;5908;51.354;7.458;2023-10-19T02:26:16;14.80;99.90
11704;DHT22;5908;51.354;7.458;2023-10-19T02:28:46;14.90;99.90
11704;DHT22;5908;51.354;7.458;2023-10-19T02:31:12;14.90;99.90
11704;DHT22;5908;51.354;7.458;2023-10-19T02:33:44;14.90;99.90
11704;DHT22;5908;51.354;7.458;2023-10-19T02:36:12;15.00;99.90
11704;DHT22;5908;51.354;7.458;2023-10-19T02:38:41;15.00;99.90
11704;DHT22;5908;51.354;7.458;2023-10-19T02:41:09;15.00;99.90
11704;DHT22;5908;51.354;7.458;2023-10-19T02:43:37;15.10;99.90
11704;DHT22;5908;51.354;7.458;2023-10-19T02:46:04;15.10;99.90
11704;DHT22;5908;51.354;7.458;2023-10-19T02:48:32;15.20;99.90
11704;DHT22;5908;51.354;7.458;2023-10-19T02:50:57;15.20;99.90
11704;DHT22;5908;51.354;7.458;2023-10-19T02:53:34;15.20;99.90
11704;DHT22;5908;51.354;7.458;2023-10-19T02:55:59;15.20;99.90
11704;DHT22;5908;51.354;7.458;2023-10-19T02:58:36;15.30;99.90
11704;DHT22;5908;51.354;7.458;2023-10-19T03:01:08;15.30;99.90
11704;DHT22;5908;51.354;7.458;2023-10-19T03:03:37;15.30;99.90
11704;DHT22;5908;51.354;7.458;2023-10-19T03:06:03;15.40;99.90
11704;DHT22;5908;51.354;7.458;2023-10-19T03:08:32;15.40;99.90
11704;DHT22;5908;51.354;7.458;2023-10-19T03:10:57;15.40;99.90
11704;DHT22;5908;51.354;7.458;2023-10-19T03:13:30;15.40;99.90
11704;DHT22;5908;51.354;7.458;2023-10-19T03:15:58;15.40;99.90
11704;DHT22;5908;51.354;7.458;2023-10-19T03:18:26;15.40;99.90
11704;DHT22;5908;51.354;7.458;2023-10-19T03:20:54;15.40;99.90
11704;DHT22;5908;51.354;7.458;2023-10-19T03:23:19;15.40;99.90
11704;DHT22;5908;51.354;7.458;2023-10-19T03:25:54;15.50;99.90
11704;DHT22;5908;51.354;7.458;2023-10-19T03:28:37;15.60;99.90
11704;DHT22;5908;51.354;7.458;2023-10-19T03:31:06;15.50;99.90
11704;DHT22;5908;51.354;7.458;2023-10-19T03:33:35;15.60;99.90
11704;DHT22;5908;51.354;7.458;2023-10-19T03:36:06;15.60;99.90
11704;DHT22;5908;51.354;7.458;2023-10-19T03:38:38;15.60;99.90
11704;DHT22;5908;51.354;7.458;2023-10-19T03:41:06;15.60;99.90
11704;DHT22;5908;51.354;7.458;2023-10-19T03:43:34;15.60;99.90
11704;DHT22;5908;51.354;7.458;2023-10-19T03:46:02;15.60;99.90
11704;DHT22;5908;51.354;7.458;2023-10-19T03:48:41;15.60;99.90
11704;DHT22;5908;51.354;7.458;2023-10-19T03:51:08;15.60;99.90
11704;DHT22;5908;51.354;7.458;2023-10-19T03:53:37;15.60;99.90
11704;DHT22;5908;51.354;7.458;2023-10-19T03:56:05;15.70;99.90
11704;DHT22;5908;51.354;7.458;2023-10-19T03:58:36;15.70;99.90
11704;DHT22;5908;51.354;7.458;2023-10-19T04:01:04;15.80;99.90
11704;DHT22;5908;51.354;7.458;2023-10-19T04:03:32;15.80;99.90
11704;DHT22;5908;51.354;7.458;2023-10-19T04:06:03;15.90;99.90
11704;DHT22;5908;51.354;7.458;2023-10-19T04:08:30;15.90;99.90
11704;DHT22;5908;51.354;7.458;2023-10-19T04:11:02;16.00;99.90
11704;DHT22;5908;51.354;7.458;2023-10-19T04:13:37;16.00;99.90
11704;DHT22;5908;51.354;7.458;2023-10-19T04:16:04;16.00;99.90
11704;DHT22;5908;51.354;7.458;2023-10-19T04:18:33;16.00;99.90
11704;DHT22;5908;51.354;7.458;2023-10-19T04:21:05;15.60;99.90
11704;DHT22;5908;51.354;7.458;2023-10-19T04:23:31;15.40;99.90
11704;DHT22;5908;51.354;7.458;2023-10-19T04:26:00;15.30;99.90
11704;DHT22;5908;51.354;7.458;2023-10-19T04:28:30;15.30;99.90
11704;DHT22;5908;51.354;7.458;2023-10-19T04:31:03;15.20;99.90
11704;DHT22;5908;51.354;7.458;2023-10-19T04:33:31;15.20;99.90
11704;DHT22;5908;51.354;7.458;2023-10-19T04:35:59;15.20;99.90
11704;DHT22;5908;51.354;7.458;2023-10-19T04:38:27;15.20;99.90
11704;DHT22;5908;51.354;7.458;2023-10-19T04:41:03;15.10;99.90
11704;DHT22;5908;51.354;7.458;2023-10-19T04:43:31;15.10;99.90
11704;DHT22;5908;51.354;7.458;2023-10-19T04:45:58;15.00;99.90
11704;DHT22;5908;51.354;7.458;2023-10-19T04:48:24;14.90;99.90
11704;DHT22;5908;51.354;7.458;2023-10-19T04:50:51;14.80;99.90
11704;DHT22;5908;51.354;7.458;2023-10-19T04:53:17;14.80;99.90
11704;DHT22;5908;51.354;7.458;2023-10-19T04:55:46;14.80;99.90
11704;DHT22;5908;51.354;7.458;2023-10-19T04:58:13;14.90;99.90
11704;DHT22;5908;51.354;7.458;2023-10-19T05:00:42;14.80;99.90
11704;DHT22;5908;51.354;7.458;2023-10-19T05:03:09;14.90;99.90
11704;DHT22;5908;51.354;7.458;2023-10-19T05:05:36;14.90;99.90
11704;DHT22;5908;51.354;7.458;2023-10-19T05:08:03;14.80;99.90
11704;DHT22;5908;51.354;7.458;2023-10-19T05:10:30;14.70;99.90
11704;DHT22;5908;51.354;7.458;2023-10-19T05:12:58;14.60;99.90
11704;DHT22;5908;51.354;7.458;2023-10-19T05:15:25;14.60;99.90
11704;DHT22;5908;51.354;7.458;2023-10-19T05:17:51;14.70;99.90
11704;DHT22;5908;51.354;7.458;2023-10-19T05:20:18;14.80;99.90
11704;DHT22;5908;51.354;7.458;2023-10-19T05:22:46;14.90;99.90
11704;DHT22;5908;51.354;7.458;2023-10-19T05:25:13;14.90;99.90
11704;DHT22;5908;51.354;7.458;2023-10-19T05:27:40;15.00;99.90
11704;DHT22;5908;51.354;7.458;2023-10-19T05:30:09;15.00;99.90
11704;DHT22;5908;51.354;7.458;2023-10-19T05:32:36;15.10;99.90
11704;DHT22;5908;51.354;7.458;2023-10-19T05:35:03;15.10;99.90
11704;DHT22;5908;51.354;7.458;2023-10-19T05:37:30;15.10;99.90
11704;DHT22;5908;51.354;7.458;2023-10-19T05:39:57;15.10;99.90
11704;DHT22;5908;51.354;7.458;2023-10-19T05:42:23;15.10;99.90
11704;DHT22;5908;51.354;7.458;2023-10-19T05:44:50;15.10;99.90
11704;DHT22;5908;51.354;7.458;2023-10-19T05:47:19;15.00;99.90
11704;DHT22;5908;51.354;7.458;2023-10-19T05:49:46;14.90;99.90
11704;DHT22;5908;51.354;7.458;2023-10-19T05:52:12;14.80;99.90
11704;DHT22;5908;51.354;7.458;2023-10-19T05:54:40;14.70;99.90
11704;DHT22;5908;51.354;7.458;2023-10-19T05:57:06;14.60;99.90
11704;DHT22;5908;51.354;7.458;2023-10-19T05:59:34;14.40;99.90
11704;DHT22;5908;51.354;7.458;2023-10-19T06:02:01;14.40;99.90
11704;DHT22;5908;51.354;7.458;2023-10-19T06:04:29;14.50;99.90
11704;DHT22;5908;51.354;7.458;2023-10-19T06:06:57;14.50;99.90
11704;DHT22;5908;51.354;7.458;2023-10-19T06:09:23;14.60;99.90
11704;DHT22;5908;51.354;7.458;2023-10-19T06:11:54;14.70;99.90
11704;DHT22;5908;51.354;7.458;2023-10-19T06:14:21;14.70;99.90
11704;DHT22;5908;51.354;7.458;2023-10-19T06:16:47;14.80;99.90
11704;DHT22;5908;51.354;7.458;2023-10-19T06:19:14;14.90;99.90
11704;DHT22;5908;51.354;7.458;2023-10-19T06:21:44;14.90;99.90
11704;DHT22;5908;51.354;7.458;2023-10-19T06:24:10;14.90;99.90
11704;DHT22;5908;51.354;7.458;2023-10-19T06:26:40;14.90;99.90
11704;DHT22;5908;51.354;7.458;2023-10-19T06:29:07;15.00;99.90
11704;DHT22;5908;51.354;7.458;2023-10-19T06:31:34;14.90;99.90
11704;DHT22;5908;51.354;7.458;2023-10-19T06:34:00;15.00;99.90
11704;DHT22;5908;51.354;7.458;2023-10-19T06:36:27;15.10;99.90
11704;DHT22;5908;51.354;7.458;2023-10-19T06:38:55;15.20;99.90
11704;DHT22;5908;51.354;7.458;2023-10-19T06:41:22;15.10;99.90
11704;DHT22;5908;51.354;7.458;2023-10-19T06:43:49;15.00;99.90
11704;DHT22;5908;51.354;7.458;2023-10-19T06:46:15;15.10;99.90
11704;DHT22;5908;51.354;7.458;2023-10-19T06:48:42;15.10;99.90
11704;DHT22;5908;51.354;7.458;2023-10-19T06:51:09;15.10;99.90
11704;DHT22;5908;51.354;7.458;2023-10-19T06:53:37;15.10;99.90
11704;DHT22;5908;51.354;7.458;2023-10-19T06:56:05;15.20;99.90
11704;DHT22;5908;51.354;7.458;2023-10-19T06:58:32;15.30;99.90
11704;DHT22;5908;51.354;7.458;2023-10-19T07:00:58;15.40;99.90
11704;DHT22;5908;51.354;7.458;2023-10-19T07:03:30;15.40;99.90
11704;DHT22;5908;51.354;7.458;2023-10-19T07:05:57;15.40;99.90
11704;DHT22;5908;51.354;7.458;2023-10-19T07:08:25;15.60;99.90
11704;DHT22;5908;51.354;7.458;2023-10-19T07:10:52;15.80;99.90
11704;DHT22;5908;51.354;7.458;2023-10-19T07:13:21;15.90;99.90
11704;DHT22;5908;51.354;7.458;2023-10-19T07:15:48;16.10;99.90
11704;DHT22;5908;51.354;7.458;2023-10-19T07:18:17;15.90;99.90
11704;DHT22;5908;51.354;7.458;2023-10-19T07:20:44;16.30;99.90
11704;DHT22;5908;51.354;7.458;2023-10-19T07:23:14;16.10;99.90
11704;DHT22;5908;51.354;7.458;2023-10-19T07:25:46;16.00;99.90
11704;DHT22;5908;51.354;7.458;2023-10-19T07:28:14;16.10;99.90
11704;DHT22;5908;51.354;7.458;2023-10-19T07:30:43;16.20;99.90
11704;DHT22;5908;51.354;7.458;2023-10-19T07:33:12;16.30;99.90
11704;DHT22;5908;51.354;7.458;2023-10-19T07:35:43;16.30;99.90
11704;DHT22;5908;51.354;7.458;2023-10-19T07:38:13;16.30;99.90
11704;DHT22;5908;51.354;7.458;2023-10-19T07:40:40;16.30;99.90
11704;DHT22;5908;51.354;7.458;2023-10-19T07:43:07;16.30;99.90
11704;DHT22;5908;51.354;7.458;2023-10-19T07:45:35;16.40;99.90
11704;DHT22;5908;51.354;7.458;2023-10-19T07:48:04;16.40;99.90
11704;DHT22;5908;51.354;7.458;2023-10-19T07:50:32;16.40;99.90
11704;DHT22;5908;51.354;7.458;2023-10-19T07:52:59;16.50;99.90
11704;DHT22;5908;51.354;7.458;2023-10-19T07:55:26;16.60;99.90
11704;DHT22;5908;51.354;7.458;2023-10-19T07:57:53;16.70;99.90
11704;DHT22;5908;51.354;7.458;2023-10-19T08:00:21;16.80;99.90
11704;DHT22;5908;51.354;7.458;2023-10-19T08:02:49;16.80;99.90
11704;DHT22;5908;51.354;7.458;2023-10-19T08:05:18;16.90;99.90
11704;DHT22;5908;51.354;7.458;2023-10-19T08:07:45;16.90;99.90
11704;DHT22;5908;51.354;7.458;2023-10-19T08:10:14;17.40;99.90
11704;DHT22;5908;51.354;7.458;2023-10-19T08:12:42;17.60;99.90
11704;DHT22;5908;51.354;7.458;2023-10-19T08:15:11;17.90;99.90
11704;DHT22;5908;51.354;7.458;2023-10-19T08:17:40;18.20;99.90
11704;DHT22;5908;51.354;7.458;2023-10-19T08:20:08;18.20;99.90
11704;DHT22;5908;51.354;7.458;2023-10-19T08:22:38;18.20;99.90
11704;DHT22;5908;51.354;7.458;2023-10-19T08:25:05;18.30;99.90
11704;DHT22;5908;51.354;7.458;2023-10-19T08:27:37;18.30;99.90
11704;DHT22;5908;51.354;7.458;2023-10-19T08:30:06;18.50;99.90
11704;DHT22;5908;51.354;7.458;2023-10-19T08:32:34;18.70;99.90
11704;DHT22;5908;51.354;7.458;2023-10-19T08:35:01;18.90;99.90
11704;DHT22;5908;51.354;7.458;2023-10-19T08:37:28;19.20;99.90
11704;DHT22;5908;51.354;7.458;2023-10-19T08:39:56;19.30;99.90
11704;DHT22;5908;51.354;7.458;2023-10-19T08:42:23;19.40;99.90
11704;DHT22;5908;51.354;7.458;2023-10-19T08:44:50;19.50;99.90
11704;DHT22;5908;51.354;7.458;2023-10-19T08:47:17;19.60;99.90
11704;DHT22;5908;51.354;7.458;2023-10-19T08:49:45;19.10;99.90
11704;DHT22;5908;51.354;7.458;2023-10-19T08:52:12;18.80;99.90
11704;DHT22;5908;51.354;7.458;2023-10-19T08:54:40;18.70;99.90
11704;DHT22;5908;51.354;7.458;2023-10-19T08:57:08;18.70;99.90
11704;DHT22;5908;51.354;7.458;2023-10-19T08:59:36;18.70;99.90
11704;DHT22;5908;51.354;7.458;2023-10-19T09:02:03;18.80;99.90
11704;DHT22;5908;51.354;7.458;2023-10-19T09:04:32;19.00;99.90
11704;DHT22;5908;51.354;7.458;2023-10-19T09:06:58;19.00;99.90
11704;DHT22;5908;51.354;7.458;2023-10-19T09:09:32;19.30;99.90
11704;DHT22;5908;51.354;7.458;2023-10-19T09:12:00;19.40;99.90
11704;DHT22;5908;51.354;7.458;2023-10-19T09:14:32;19.30;99.90
11704;DHT22;5908;51.354;7.458;2023-10-19T09:17:01;19.30;99.90
11704;DHT22;5908;51.354;7.458;2023-10-19T09:19:37;19.30;99.90
11704;DHT22;5908;51.354;7.458;2023-10-19T09:22:04;19.50;99.90
11704;DHT22;5908;51.354;7.458;2023-10-19T09:24:34;19.60;99.90
11704;DHT22;5908;51.354;7.458;2023-10-19T09:27:02;19.70;99.90
11704;DHT22;5908;51.354;7.458;2023-10-19T09:29:29;19.60;99.90
11704;DHT22;5908;51.354;7.458;2023-10-19T09:31:58;19.70;99.90
11704;DHT22;5908;51.354;7.458;2023-10-19T09:34:29;19.80;99.90
11704;DHT22;5908;51.354;7.458;2023-10-19T09:36:58;19.70;99.90
11704;DHT22;5908;51.354;7.458;2023-10-19T09:39:26;19.80;99.90
11704;DHT22;5908;51.354;7.458;2023-10-19T09:42:00;19.90;99.90
11704;DHT22;5908;51.354;7.458;2023-10-19T09:44:38;19.90;99.90
11704;DHT22;5908;51.354;7.458;2023-10-19T09:47:10;19.90;99.90
11704;DHT22;5908;51.354;7.458;2023-10-19T09:49:39;20.00;99.90
11704;DHT22;5908;51.354;7.458;2023-10-19T09:52:07;20.20;99.90
11704;DHT22;5908;51.354;7.458;2023-10-19T09:54:43;20.30;99.90
11704;DHT22;5908;51.354;7.458;2023-10-19T09:57:16;20.50;99.40
11704;DHT22;5908;51.354;7.458;2023-10-19T09:59:46;20.60;99.90
11704;DHT22;5908;51.354;7.458;2023-10-19T10:02:15;20.70;99.20
11704;DHT22;5908;51.354;7.458;2023-10-19T10:04:43;20.60;99.20
11704;DHT22;5908;51.354;7.458;2023-10-19T10:07:11;20.50;99.60
11704;DHT22;5908;51.354;7.458;2023-10-19T10:09:39;20.40;99.90
11704;DHT22;5908;51.354;7.458;2023-10-19T10:12:19;20.50;99.80
11704;DHT22;5908;51.354;7.458;2023-10-19T10:14:58;20.50;99.50
11704;DHT22;5908;51.354;7.458;2023-10-19T10:17:28;20.50;98.40
11704;DHT22;5908;51.354;7.458;2023-10-19T10:19:57;20.50;97.70
11704;DHT22;5908;51.354;7.458;2023-10-19T10:22:45;20.70;97.90
11704;DHT22;5908;51.354;7.458;2023-10-19T10:25:34;20.90;97.40
11704;DHT22;5908;51.354;7.458;2023-10-19T10:28:03;21.20;96.20
11704;DHT22;5908;51.354;7.458;2023-10-19T10:30:30;21.50;96.00
11704;DHT22;5908;51.354;7.458;2023-10-19T10:32:57;21.60;95.60
11704;DHT22;5908;51.354;7.458;2023-10-19T10:35:55;21.50;94.70
11704;DHT22;5908;51.354;7.458;2023-10-19T10:38:22;21.30;95.00
11704;DHT22;5908;51.354;7.458;2023-10-19T10:40:50;21.00;96.20
11704;DHT22;5908;51.354;7.458;2023-10-19T10:43:19;20.90;96.00
11704;DHT22;5908;51.354;7.458;2023-10-19T10:45:47;20.60;95.90
11704;DHT22;5908;51.354;7.458;2023-10-19T10:48:14;20.30;95.90
11704;DHT22;5908;51.354;7.458;2023-10-19T10:50:41;20.10;97.20
11704;DHT22;5908;51.354;7.458;2023-10-19T10:53:08;20.10;97.40
11704;DHT22;5908;51.354;7.458;2023-10-19T10:55:37;20.20;97.50
11704;DHT22;5908;51.354;7.458;2023-10-19T10:58:06;20.30;96.90
11704;DHT22;5908;51.354;7.458;2023-10-19T11:00:33;20.40;96.50
11704;DHT22;5908;51.354;7.458;2023-10-19T11:03:03;20.40;96.60
11704;DHT22;5908;51.354;7.458;2023-10-19T11:05:30;20.40;96.20
11704;DHT22;5908;51.354;7.458;2023-10-19T11:08:04;20.40;95.90
11704;DHT22;5908;51.354;7.458;2023-10-19T11:10:32;20.30;95.90
11704;DHT22;5908;51.354;7.458;2023-10-19T11:13:02;20.30;96.10
11704;DHT22;5908;51.354;7.458;2023-10-19T11:15:30;20.70;94.90
11704;DHT22;5908;51.354;7.458;2023-10-19T11:17:58;21.10;94.10
11704;DHT22;5908;51.354;7.458;2023-10-19T11:20:26;21.40;93.20
11704;DHT22;5908;51.354;7.458;2023-10-19T11:22:55;21.70;92.40
11704;DHT22;5908;51.354;7.458;2023-10-19T11:25:23;22.10;92.00
11704;DHT22;5908;51.354;7.458;2023-10-19T11:27:53;22.30;91.70
11704;DHT22;5908;51.354;7.458;2023-10-19T11:30:24;22.60;90.70
11704;DHT22;5908;51.354;7.458;2023-10-19T11:32:52;22.70;90.80
11704;DHT22;5908;51.354;7.458;2023-10-19T11:35:23;22.80;90.40
11704;DHT22;5908;51.354;7.458;2023-10-19T11:37:50;22.90;90.90
11704;DHT22;5908;51.354;7.458;2023-10-19T11:40:18;22.80;90.80
11704;DHT22;5908;51.354;7.458;2023-10-19T11:42:45;22.90;90.80
11704;DHT22;5908;51.354;7.458;2023-10-19T11:45:12;22.90;90.70
11704;DHT22;5908;51.354;7.458;2023-10-19T11:47:39;22.40;91.40
11704;DHT22;5908;51.354;7.458;2023-10-19T11:50:08;22.80;89.90
11704;DHT22;5908;51.354;7.458;2023-10-19T11:52:37;23.00;88.90
11704;DHT22;5908;51.354;7.458;2023-10-19T11:55:05;23.00;88.50
11704;DHT22;5908;51.354;7.458;2023-10-19T11:57:34;23.00;89.10
11704;DHT22;5908;51.354;7.458;2023-10-19T12:00:01;23.00;89.20
11704;DHT22;5908;51.354;7.458;2023-10-19T12:02:34;23.00;89.00
11704;DHT22;5908;51.354;7.458;2023-10-19T12:05:03;22.80;89.70
11704;DHT22;5908;51.354;7.458;2023-10-19T12:07:31;22.60;90.80
11704;DHT22;5908;51.354;7.458;2023-10-19T12:09:59;22.50;91.20
11704;DHT22;5908;51.354;7.458;2023-10-19T12:12:26;22.40;90.80
11704;DHT22;5908;51.354;7.458;2023-10-19T12:14:52;22.40;91.10
11704;DHT22;5908;51.354;7.458;2023-10-19T12:17:20;22.50;91.30
11704;DHT22;5908;51.354;7.458;2023-10-19T12:19:51;22.30;90.70
11704;DHT22;5908;51.354;7.458;2023-10-19T12:22:18;22.20;91.00
11704;DHT22;5908;51.354;7.458;2023-10-19T12:24:48;21.90;91.20
11704;DHT22;5908;51.354;7.458;2023-10-19T12:27:17;21.80;91.80
11704;DHT22;5908;51.354;7.458;2023-10-19T12:29:44;22.00;91.80
11704;DHT22;5908;51.354;7.458;2023-10-19T12:32:11;22.10;91.60
11704;DHT22;5908;51.354;7.458;2023-10-19T12:34:40;22.20;91.00
11704;DHT22;5908;51.354;7.458;2023-10-19T12:37:07;22.20;90.90
11704;DHT22;5908;51.354;7.458;2023-10-19T12:39:35;22.30;91.00
11704;DHT22;5908;51.354;7.458;2023-10-19T12:42:09;22.50;90.70
11704;DHT22;5908;51.354;7.458;2023-10-19T12:44:36;22.70;90.40
11704;DHT22;5908;51.354;7.458;2023-10-19T12:47:07;22.70;90.30
11704;DHT22;5908;51.354;7.458;2023-10-19T12:49:36;22.40;90.50
11704;DHT22;5908;51.354;7.458;2023-10-19T12:52:03;22.20;91.30
11704;DHT22;5908;51.354;7.458;2023-10-19T12:54:32;22.30;91.20
11704;DHT22;5908;51.354;7.458;2023-10-19T12:56:58;22.30;91.10
11704;DHT22;5908;51.354;7.458;2023-10-19T12:59:26;22.30;91.40
11704;DHT22;5908;51.354;7.458;2023-10-19T13:01:53;22.20;91.40
11704;DHT22;5908;51.354;7.458;2023-10-19T13:04:23;22.10;91.80
11704;DHT22;5908;51.354;7.458;2023-10-19T13:06:50;22.00;92.00
11704;DHT22;5908;51.354;7.458;2023-10-19T13:09:17;21.90;92.20
11704;DHT22;5908;51.354;7.458;2023-10-19T13:11:48;21.70;92.40
11704;DHT22;5908;51.354;7.458;2023-10-19T13:14:17;21.40;92.70
11704;DHT22;5908;51.354;7.458;2023-10-19T13:16:45;21.30;93.30
11704;DHT22;5908;51.354;7.458;2023-10-19T13:19:15;21.30;93.40
11704;DHT22;5908;51.354;7.458;2023-10-19T13:21:46;21.50;93.30
11704;DHT22;5908;51.354;7.458;2023-10-19T13:24:13;21.60;92.60
11704;DHT22;5908;51.354;7.458;2023-10-19T13:26:40;21.50;93.80
11704;DHT22;5908;51.354;7.458;2023-10-19T13:29:11;21.60;93.40
11704;DHT22;5908;51.354;7.458;2023-10-19T13:31:38;21.60;93.30
11704;DHT22;5908;51.354;7.458;2023-10-19T13:34:06;21.60;94.40
11704;DHT22;5908;51.354;7.458;2023-10-19T13:36:35;21.50;94.30
11704;DHT22;5908;51.354;7.458;2023-10-19T13:39:04;21.10;96.00
11704;DHT22;5908;51.354;7.458;2023-10-19T13:41:32;20.80;97.30
11704;DHT22;5908;51.354;7.458;2023-10-19T13:43:58;20.70;99.90
11704;DHT22;5908;51.354;7.458;2023-10-19T13:46:25;20.60;99.90
11704;DHT22;5908;51.354;7.458;2023-10-19T13:48:52;20.40;99.90
11704;DHT22;5908;51.354;7.458;2023-10-19T13:51:21;20.20;99.90
11704;DHT22;5908;51.354;7.458;2023-10-19T13:53:48;20.20;99.90
11704;DHT22;5908;51.354;7.458;2023-10-19T13:56:15;20.20;99.90
11704;DHT22;5908;51.354;7.458;2023-10-19T13:58:42;20.10;99.90
11704;DHT22;5908;51.354;7.458;2023-10-19T14:01:10;20.30;99.90
11704;DHT22;5908;51.354;7.458;2023-10-19T14:03:37;20.30;99.90
11704;DHT22;5908;51.354;7.458;2023-10-19T14:06:04;20.40;99.90
11704;DHT22;5908;51.354;7.458;2023-10-19T14:08:32;20.30;99.90
11704;DHT22;5908;51.354;7.458;2023-10-19T14:11:02;20.20;99.90
11704;DHT22;5908;51.354;7.458;2023-10-19T14:13:29;20.20;99.90
11704;DHT22;5908;51.354;7.458;2023-10-19T14:15:56;20.30;99.90
11704;DHT22;5908;51.354;7.458;2023-10-19T14:18:22;20.40;99.90
11704;DHT22;5908;51.354;7.458;2023-10-19T14:20:49;20.50;99.90
11704;DHT22;5908;51.354;7.458;2023-10-19T14:23:16;20.60;99.90
11704;DHT22;5908;51.354;7.458;2023-10-19T14:25:44;20.70;99.90
11704;DHT22;5908;51.354;7.458;2023-10-19T14:28:11;20.70;99.90
11704;DHT22;5908;51.354;7.458;2023-10-19T14:30:37;20.70;99.90
11704;DHT22;5908;51.354;7.458;2023-10-19T14:33:04;20.70;99.00
11704;DHT22;5908;51.354;7.458;2023-10-19T14:35:36;20.70;99.80
11704;DHT22;5908;51.354;7.458;2023-10-19T14:38:04;20.60;99.10
11704;DHT22;5908;51.354;7.458;2023-10-19T14:40:32;20.60;99.00
11704;DHT22;5908;51.354;7.458;2023-10-19T14:43:00;20.50;99.90
11704;DHT22;5908;51.354;7.458;2023-10-19T14:45:27;20.40;99.90
11704;DHT22;5908;51.354;7.458;2023-10-19T14:47:56;20.30;99.90
11704;DHT22;5908;51.354;7.458;2023-10-19T14:50:23;20.20;99.90
11704;DHT22;5908;51.354;7.458;2023-10-19T14:52:51;20.00;99.90
11704;DHT22;5908;51.354;7.458;2023-10-19T14:55:19;19.90;99.90
11704;DHT22;5908;51.354;7.458;2023-10-19T14:57:47;19.80;99.90
11704;DHT22;5908;51.354;7.458;2023-10-19T15:00:17;19.50;99.90
11704;DHT22;5908;51.354;7.458;2023-10-19T15:02:49;19.30;99.90
11704;DHT22;5908;51.354;7.458;2023-10-19T15:05:18;19.10;99.90
11704;DHT22;5908;51.354;7.458;2023-10-19T15:07:47;19.10;99.90
11704;DHT22;5908;51.354;7.458;2023-10-19T15:10:18;19.00;99.90
11704;DHT22;5908;51.354;7.458;2023-10-19T15:12:45;18.90;99.90
11704;DHT22;5908;51.354;7.458;2023-10-19T15:15:12;18.90;99.90
11704;DHT22;5908;51.354;7.458;2023-10-19T15:17:41;18.90;99.90
11704;DHT22;5908;51.354;7.458;2023-10-19T15:20:10;19.00;99.90
11704;DHT22;5908;51.354;7.458;2023-10-19T15:22:38;19.10;99.90
11704;DHT22;5908;51.354;7.458;2023-10-19T15:25:05;18.90;99.90
11704;DHT22;5908;51.354;7.458;2023-10-19T15:27:33;18.80;99.90
11704;DHT22;5908;51.354;7.458;2023-10-19T15:30:00;18.80;99.90
11704;DHT22;5908;51.354;7.458;2023-10-19T15:32:26;18.90;99.90
11704;DHT22;5908;51.354;7.458;2023-10-19T15:34:57;18.90;99.90
11704;DHT22;5908;51.354;7.458;2023-10-19T15:37:24;18.90;99.90
11704;DHT22;5908;51.354;7.458;2023-10-19T15:39:51;18.90;99.90
11704;DHT22;5908;51.354;7.458;2023-10-19T15:42:19;18.80;99.90
11704;DHT22;5908;51.354;7.458;2023-10-19T15:44:47;18.80;99.90
11704;DHT22;5908;51.354;7.458;2023-10-19T15:47:14;18.70;99.90
11704;DHT22;5908;51.354;7.458;2023-10-19T15:49:46;18.50;99.90
11704;DHT22;5908;51.354;7.458;2023-10-19T15:52:18;18.40;99.90
11704;DHT22;5908;51.354;7.458;2023-10-19T15:54:45;18.40;99.90